Terminal Aerodrome Forecast
Issued by NWS

Home | Current Version | Previous Version | Text Only | Print | Product List | Glossary On
Versions: 1 2 3 4 5 6 7 8 9 10 11 12 13 14 15 16 17 18 19 20 21 22 23 24 25 26 27 28
549
FTUS43 KGRB 162029 AAB
TAFATW
TAF AMD
KATW 162029Z 1620/1718 34007KT P6SM BKN025
      TEMPO 1621/1623 -SN
     FM162300 34007KT P6SM SCT025 SCT040
     FM170100 29006KT P6SM SCT110
     FM170800 26008KT P6SM BKN090
     FM171200 24012KT P6SM BKN070
     FM171600 25015G24KT P6SM SCT250=

USA.gov is the U.S. government's official web portal to all federal, state and local government web resources and services.